Time;durP1;ratioP1;P1;durP2;ratioP2;P2;SDS_P1;SDS_P2;PMS_P1;PMS_P2;Temp;Humidity;BMP_temperature;BMP_pressure;BME280_temperature;BME280_humidity;BME280_pressure;Samples;Min_cycle;Max_cycle;Signal;HPM_P1;HPM_P2
2022/06/17 00:02:04;;;;;;;5.10;2.65;;;;;;;;;;6278156;22;20408;-70
2022/06/17 00:04:29;;;;;;;7.40;2.63;;;;;;;;;;6277564;22;20008;-70
2022/06/17 00:06:56;;;;;;;5.28;2.58;;;;;;;;;;6277810;22;20014;-70
2022/06/17 00:09:22;;;;;;;6.40;3.15;;;;;;;;;;6277992;22;20082;-69
2022/06/17 00:11:47;;;;;;;5.05;2.92;;;;;;;;;;6277746;22;20014;-69
2022/06/17 00:14:19;;;;;;;9.38;3.22;;;;;;;;;;6277298;22;20019;-69
2022/06/17 00:16:44;;;;;;;10.65;3.47;;;;;;;;;;6277850;22;19992;-70
2022/06/17 00:19:10;;;;;;;5.95;3.47;;;;;;;;;;6277695;22;20058;-69
2022/06/17 00:21:39;;;;;;;9.00;3.67;;;;;;;;;;6277868;22;20439;-69
2022/06/17 00:24:15;;;;;;;5.90;3.90;;;;;;;;;;6249440;22;20000;-69
2022/06/17 00:26:41;;;;;;;6.53;3.33;;;;;;;;;;6276804;22;20011;-69
2022/06/17 00:29:09;;;;;;;6.25;3.40;;;;;;;;;;6277209;22;19988;-69
2022/06/17 00:31:34;;;;;;;6.55;3.63;;;;;;;;;;6277568;22;20305;-70
2022/06/17 00:33:59;;;;;;;6.68;3.70;;;;;;;;;;6277285;22;20057;-69
2022/06/17 00:36:24;;;;;;;5.78;3.83;;;;;;;;;;6277804;22;20285;-69
2022/06/17 00:38:52;;;;;;;7.55;3.75;;;;;;;;;;6277389;22;20387;-69
2022/06/17 00:41:28;;;;;;;7.60;3.75;;;;;;;;;;6277969;22;19996;-69
2022/06/17 00:43:53;;;;;;;6.82;3.97;;;;;;;;;;6277537;22;20003;-71
2022/06/17 00:46:34;;;;;;;8.20;4.10;;;;;;;;;;6277448;22;20007;-71
2022/06/17 00:49:06;;;;;;;7.57;3.97;;;;;;;;;;6277420;22;20073;-71
2022/06/17 00:51:39;;;;;;;11.02;4.18;;;;;;;;;;6277526;22;20000;-71
2022/06/17 00:54:13;;;;;;;8.85;4.68;;;;;;;;;;6276372;22;19992;-71
2022/06/17 00:56:38;;;;;;;10.60;3.97;;;;;;;;;;6277367;22;20000;-71
2022/06/17 00:59:08;;;;;;;7.68;4.38;;;;;;;;;;6277315;22;19999;-71
2022/06/17 01:01:36;;;;;;;6.85;4.07;;;;;;;;;;6277318;22;19991;-71
2022/06/17 01:04:02;;;;;;;9.35;4.57;;;;;;;;;;6277251;22;20004;-70
2022/06/17 01:06:31;;;;;;;7.72;4.40;;;;;;;;;;6277124;22;19992;-71
2022/06/17 01:11:45;;;;;;;9.57;4.97;;;;;;;;;;6276922;22;20019;-70
2022/06/17 01:14:12;;;;;;;9.32;4.50;;;;;;;;;;6277087;22;20004;-71
2022/06/17 01:16:40;;;;;;;9.18;4.63;;;;;;;;;;6277245;22;20003;-71
2022/06/17 01:19:12;;;;;;;8.93;4.90;;;;;;;;;;6276982;22;20007;-71
2022/06/17 01:21:47;;;;;;;10.35;4.68;;;;;;;;;;6277200;22;20049;-71
2022/06/17 01:24:14;;;;;;;8.77;4.75;;;;;;;;;;6277155;22;20003;-71
2022/06/17 01:26:39;;;;;;;10.18;5.00;;;;;;;;;;6277436;22;20004;-71
2022/06/17 01:29:09;;;;;;;10.23;4.85;;;;;;;;;;6276919;22;20030;-71
2022/06/17 01:31:34;;;;;;;6.88;4.65;;;;;;;;;;6277115;22;20000;-70
2022/06/17 01:33:59;;;;;;;9.50;4.72;;;;;;;;;;6276793;22;20311;-70
2022/06/17 01:36:27;;;;;;;8.45;5.22;;;;;;;;;;6277189;22;20437;-70
2022/06/17 01:38:53;;;;;;;12.35;5.55;;;;;;;;;;6276935;22;20008;-70
2022/06/17 01:41:24;;;;;;;10.60;5.03;;;;;;;;;;6276933;22;20045;-70
2022/06/17 01:44:00;;;;;;;12.07;5.05;;;;;;;;;;6276490;22;20436;-71
2022/06/17 01:46:32;;;;;;;11.00;5.68;;;;;;;;;;6276761;22;20053;-70
2022/06/17 01:49:02;;;;;;;9.57;5.35;;;;;;;;;;6277084;22;20021;-71
2022/06/17 01:51:29;;;;;;;12.15;5.65;;;;;;;;;;6276900;22;19999;-71
2022/06/17 01:53:56;;;;;;;12.35;5.53;;;;;;;;;;6276829;22;20121;-71
2022/06/17 01:56:23;;;;;;;10.68;5.25;;;;;;;;;;6276977;22;20110;-70
2022/06/17 01:58:52;;;;;;;10.57;5.30;;;;;;;;;;6276288;22;20420;-71
2022/06/17 02:01:17;;;;;;;8.90;4.70;;;;;;;;;;6276779;22;20015;-71
2022/06/17 02:03:47;;;;;;;9.82;5.50;;;;;;;;;;6276618;22;19995;-71
2022/06/17 02:06:19;;;;;;;14.00;5.90;;;;;;;;;;6276600;22;20004;-71
2022/06/17 02:08:44;;;;;;;12.52;5.72;;;;;;;;;;6277126;22;20018;-70
2022/06/17 02:11:09;;;;;;;13.85;5.75;;;;;;;;;;6276494;22;20000;-71
2022/06/17 02:13:35;;;;;;;12.40;5.60;;;;;;;;;;6276855;22;20010;-70
2022/06/17 02:16:01;;;;;;;9.38;5.88;;;;;;;;;;6276584;22;20025;-71
2022/06/17 02:18:26;;;;;;;18.40;5.93;;;;;;;;;;6276502;22;20376;-71
2022/06/17 02:20:55;;;;;;;14.48;5.72;;;;;;;;;;6276598;22;20023;-71
2022/06/17 02:23:22;;;;;;;12.82;6.63;;;;;;;;;;6276552;22;20012;-71
2022/06/17 02:25:49;;;;;;;9.77;5.93;;;;;;;;;;6276704;22;19996;-71
2022/06/17 02:28:16;;;;;;;12.07;5.97;;;;;;;;;;6276011;22;20448;-70
2022/06/17 02:30:42;;;;;;;11.05;5.88;;;;;;;;;;6276598;22;20007;-71
2022/06/17 02:33:08;;;;;;;12.73;6.57;;;;;;;;;;6276080;22;20350;-70
2022/06/17 02:35:37;;;;;;;14.63;6.55;;;;;;;;;;6276646;22;20000;-71
2022/06/17 02:38:02;;;;;;;13.07;6.55;;;;;;;;;;6276278;22;20031;-71
2022/06/17 02:40:32;;;;;;;10.95;6.85;;;;;;;;;;6276775;22;19988;-71
2022/06/17 02:42:59;;;;;;;16.45;7.18;;;;;;;;;;6276312;22;20007;-71
2022/06/17 02:45:26;;;;;;;12.70;6.45;;;;;;;;;;6276786;22;20000;-71
2022/06/17 02:47:51;;;;;;;14.90;6.55;;;;;;;;;;6276268;22;20019;-71
2022/06/17 02:50:18;;;;;;;13.43;6.47;;;;;;;;;;6276758;22;20003;-70
2022/06/17 02:52:44;;;;;;;14.57;6.50;;;;;;;;;;6276327;22;20019;-71
2022/06/17 02:55:14;;;;;;;12.55;6.50;;;;;;;;;;6276451;22;19996;-71
2022/06/17 02:57:40;;;;;;;12.27;6.22;;;;;;;;;;6276464;22;20026;-70
2022/06/17 03:00:08;;;;;;;12.38;6.65;;;;;;;;;;6276508;22;20012;-70
2022/06/17 03:02:44;;;;;;;15.07;6.78;;;;;;;;;;6276574;22;19999;-70
2022/06/17 03:05:20;;;;;;;12.30;6.43;;;;;;;;;;6275868;22;20455;-70
2022/06/17 03:07:45;;;;;;;11.65;6.30;;;;;;;;;;6276388;22;20039;-70
2022/06/17 03:10:15;;;;;;;17.55;7.20;;;;;;;;;;6276223;22;20296;-70
2022/06/17 03:12:42;;;;;;;12.45;6.68;;;;;;;;;;6276461;22;20037;-71
2022/06/17 03:15:12;;;;;;;15.88;7.32;;;;;;;;;;6276113;22;20428;-70
2022/06/17 03:17:38;;;;;;;15.68;6.15;;;;;;;;;;6277125;22;20011;-71
2022/06/17 03:20:05;;;;;;;15.70;7.05;;;;;;;;;;6278132;22;20011;-71
2022/06/17 03:22:31;;;;;;;13.65;7.40;;;;;;;;;;6278572;22;19995;-70
2022/06/17 03:25:09;;;;;;;14.68;7.53;;;;;;;;;;6277695;22;20048;-71
2022/06/17 03:27:34;;;;;;;16.02;7.47;;;;;;;;;;6278198;22;20015;-70
2022/06/17 03:30:00;;;;;;;16.23;6.43;;;;;;;;;;6278005;22;20408;-70
2022/06/17 03:32:28;;;;;;;13.68;6.85;;;;;;;;;;6278301;22;20000;-70
2022/06/17 03:34:54;;;;;;;15.82;7.28;;;;;;;;;;6278162;22;19996;-71
2022/06/17 03:37:28;;;;;;;13.25;6.53;;;;;;;;;;6278248;22;20358;-70
2022/06/17 03:40:04;;;;;;;16.60;7.28;;;;;;;;;;6278289;22;20439;-71
2022/06/17 03:42:33;;;;;;;14.07;6.78;;;;;;;;;;6278087;22;20074;-71
2022/06/17 03:45:00;;;;;;;12.10;6.82;;;;;;;;;;6277855;22;20035;-71
2022/06/17 03:47:34;;;;;;;14.05;6.78;;;;;;;;;;6278173;22;20424;-70
2022/06/17 03:50:02;;;;;;;11.93;6.88;;;;;;;;;;6277643;22;20004;-70
2022/06/17 03:52:48;;;;;;;19.00;8.52;;;;;;;;;;6278065;22;20031;-71
2022/06/17 03:55:14;;;;;;;12.27;7.25;;;;;;;;;;6277777;22;20011;-70
2022/06/17 03:57:41;;;;;;;14.73;7.35;;;;;;;;;;6277787;22;20007;-70
2022/06/17 04:00:11;;;;;;;15.50;7.45;;;;;;;;;;6277958;22;20320;-71
2022/06/17 04:02:36;;;;;;;14.00;6.68;;;;;;;;;;6277828;22;20376;-71
2022/06/17 04:05:02;;;;;;;12.68;6.70;;;;;;;;;;6277884;22;20040;-71
2022/06/17 04:07:27;;;;;;;10.95;6.25;;;;;;;;;;6277617;22;20409;-71
2022/06/17 04:09:53;;;;;;;16.10;7.05;;;;;;;;;;6277868;22;20008;-71
2022/06/17 04:12:24;;;;;;;14.25;7.18;;;;;;;;;;6277875;22;20008;-70
2022/06/17 04:14:58;;;;;;;15.30;7.10;;;;;;;;;;6277781;22;20019;-71
2022/06/17 04:17:23;;;;;;;13.73;6.93;;;;;;;;;;6277848;22;20038;-70
2022/06/17 04:19:57;;;;;;;14.48;6.72;;;;;;;;;;6277695;22;20004;-70
2022/06/17 04:22:25;;;;;;;13.05;6.97;;;;;;;;;;6277790;22;20038;-70
2022/06/17 04:24:52;;;;;;;13.90;6.65;;;;;;;;;;6277196;22;20431;-71
2022/06/17 04:27:18;;;;;;;11.85;6.40;;;;;;;;;;6278034;22;20018;-70
2022/06/17 04:29:46;;;;;;;12.30;6.60;;;;;;;;;;6277744;22;20016;-70
2022/06/17 04:32:17;;;;;;;12.20;6.50;;;;;;;;;;6277623;22;20000;-70
2022/06/17 04:34:43;;;;;;;13.35;6.07;;;;;;;;;;6277350;22;20007;-71
2022/06/17 04:37:17;;;;;;;10.38;5.80;;;;;;;;;;6277496;22;20063;-70
2022/06/17 04:39:42;;;;;;;;;;;;;;;;;;6278252;22;20007;-71
2022/06/17 04:42:11;;;;;;;9.25;4.90;;;;;;;;;;6277511;22;19906;-70
2022/06/17 04:44:37;;;;;;;8.55;4.72;;;;;;;;;;6277437;22;20027;-70
2022/06/17 04:47:07;;;;;;;9.95;4.60;;;;;;;;;;6277476;22;20003;-70
2022/06/17 04:49:35;;;;;;;7.50;4.50;;;;;;;;;;6277468;22;20000;-70
2022/06/17 04:52:01;;;;;;;9.10;4.05;;;;;;;;;;6277398;22;20019;-71
2022/06/17 04:54:27;;;;;;;5.78;3.13;;;;;;;;;;6277500;22;19996;-70
2022/06/17 04:56:55;;;;;;;5.72;3.30;;;;;;;;;;6277372;22;20077;-71
2022/06/17 04:59:26;;;;;;;4.70;3.20;;;;;;;;;;6277119;22;20443;-71
2022/06/17 05:01:52;;;;;;;5.43;3.10;;;;;;;;;;6276951;22;19991;-70
2022/06/17 05:04:17;;;;;;;3.95;2.70;;;;;;;;;;6277459;22;19998;-71
2022/06/17 05:06:43;;;;;;;5.65;2.72;;;;;;;;;;6277236;22;20029;-71
2022/06/17 05:09:18;;;;;;;4.88;2.70;;;;;;;;;;6276988;22;19991;-70
2022/06/17 05:11:45;;;;;;;4.18;2.55;;;;;;;;;;6277280;22;20027;-71
2022/06/17 05:14:17;;;;;;;5.13;2.40;;;;;;;;;;6277165;22;20367;-71
2022/06/17 05:16:42;;;;;;;6.43;2.88;;;;;;;;;;6277250;22;20011;-71
2022/06/17 05:19:07;;;;;;;5.38;2.65;;;;;;;;;;6277226;22;19999;-71
2022/06/17 05:21:33;;;;;;;6.75;2.50;;;;;;;;;;6276591;22;20012;-71
2022/06/17 05:23:58;;;;;;;4.38;2.80;;;;;;;;;;6277294;22;20074;-71
2022/06/17 05:26:24;;;;;;;4.95;2.05;;;;;;;;;;6277189;22;20004;-71
2022/06/17 05:28:49;;;;;;;4.32;2.20;;;;;;;;;;6277271;22;20428;-72
2022/06/17 05:31:16;;;;;;;7.80;2.40;;;;;;;;;;6277028;22;19999;-70
2022/06/17 05:33:41;;;;;;;3.88;2.17;;;;;;;;;;6276885;22;20007;-71
2022/06/17 05:36:06;;;;;;;3.80;2.20;;;;;;;;;;6277388;22;20007;-71
2022/06/17 05:38:32;;;;;;;4.22;1.98;;;;;;;;;;6276595;22;20014;-71
2022/06/17 05:40:57;;;;;;;4.38;2.20;;;;;;;;;;6276640;22;20053;-71
2022/06/17 05:43:22;;;;;;;3.65;2.53;;;;;;;;;;6276474;22;20086;-71
2022/06/17 05:45:48;;;;;;;3.95;1.95;;;;;;;;;;6276926;22;20023;-71
2022/06/17 05:48:13;;;;;;;3.03;1.98;;;;;;;;;;6276417;22;20069;-70
2022/06/17 05:50:38;;;;;;;3.47;2.00;;;;;;;;;;6276940;22;19999;-70
2022/06/17 05:53:05;;;;;;;3.13;1.90;;;;;;;;;;6276839;22;20000;-70
2022/06/17 05:55:31;;;;;;;4.72;1.90;;;;;;;;;;6277018;22;20075;-70
2022/06/17 05:57:57;;;;;;;5.30;2.42;;;;;;;;;;6276196;22;20388;-70
2022/06/17 06:00:23;;;;;;;3.97;1.95;;;;;;;;;;6276841;22;20022;-70
2022/06/17 06:02:48;;;;;;;4.47;1.92;;;;;;;;;;6276776;22;20113;-70
2022/06/17 06:05:15;;;;;;;3.97;2.17;;;;;;;;;;6276813;22;20023;-70
2022/06/17 06:07:41;;;;;;;3.50;2.20;;;;;;;;;;6276126;22;20440;-70
2022/06/17 06:10:07;;;;;;;3.95;2.10;;;;;;;;;;6277180;22;20050;-70
2022/06/17 06:15:16;;;;;;;4.63;2.10;;;;;;;;;;6276495;22;20006;-70
2022/06/17 06:17:44;;;;;;;3.58;2.10;;;;;;;;;;6276235;22;20058;-71
2022/06/17 06:20:09;;;;;;;4.97;2.38;;;;;;;;;;6276389;22;20442;-71
2022/06/17 06:22:35;;;;;;;7.05;2.00;;;;;;;;;;6276674;22;19988;-71
2022/06/17 06:25:00;;;;;;;3.08;2.00;;;;;;;;;;6276246;22;20069;-70
2022/06/17 06:27:25;;;;;;;4.00;2.15;;;;;;;;;;6276614;22;20007;-70
2022/06/17 06:29:50;;;;;;;4.63;2.22;;;;;;;;;;6276681;22;20000;-70
2022/06/17 06:32:15;;;;;;;4.15;2.28;;;;;;;;;;6276534;22;20014;-71
2022/06/17 06:34:41;;;;;;;4.20;2.20;;;;;;;;;;6276444;22;19992;-71
2022/06/17 06:37:06;;;;;;;5.05;2.38;;;;;;;;;;6276764;22;20209;-70
2022/06/17 06:39:31;;;;;;;7.25;2.30;;;;;;;;;;6276407;22;20021;-71
2022/06/17 06:41:56;;;;;;;5.77;2.07;;;;;;;;;;6276541;22;20019;-71
2022/06/17 06:44:22;;;;;;;7.90;2.30;;;;;;;;;;6276089;22;20213;-71
2022/06/17 06:46:47;;;;;;;7.25;2.22;;;;;;;;;;6276482;22;20252;-71
2022/06/17 06:49:12;;;;;;;6.53;2.35;;;;;;;;;;6276501;22;20054;-71
2022/06/17 06:51:37;;;;;;;5.00;2.15;;;;;;;;;;6276219;22;20455;-71
2022/06/17 06:54:03;;;;;;;14.85;2.20;;;;;;;;;;6278276;22;20008;-71
2022/06/17 06:56:29;;;;;;;8.10;2.33;;;;;;;;;;6278133;22;20023;-71
2022/06/17 06:58:54;;;;;;;5.28;2.22;;;;;;;;;;6278665;22;20067;-71
2022/06/17 07:01:19;;;;;;;12.10;2.03;;;;;;;;;;6278604;22;20007;-71
2022/06/17 07:03:44;;;;;;;5.72;2.15;;;;;;;;;;6278408;22;20004;-71
2022/06/17 07:06:11;;;;;;;8.20;2.30;;;;;;;;;;6278607;22;20285;-71
2022/06/17 07:08:36;;;;;;;7.07;2.25;;;;;;;;;;6278186;22;20390;-71
2022/06/17 07:11:03;;;;;;;6.43;2.10;;;;;;;;;;6277916;22;20046;-71
2022/06/17 07:13:28;;;;;;;6.68;2.35;;;;;;;;;;6251127;22;19992;-71
2022/06/17 07:15:54;;;;;;;9.95;2.30;;;;;;;;;;6278115;22;20071;-71
2022/06/17 07:18:38;;;;;;;7.25;2.40;;;;;;;;;;6278558;22;20078;-71
2022/06/17 07:21:05;;;;;;;9.85;2.15;;;;;;;;;;6277854;22;20000;-71
2022/06/17 07:23:34;;;;;;;9.55;3.05;;;;;;;;;;6276188;22;20083;-71
2022/06/17 07:26:00;;;;;;;10.38;2.30;;;;;;;;;;6276877;22;20019;-71
2022/06/17 07:28:26;;;;;;;9.18;2.40;;;;;;;;;;6277470;22;20022;-71
2022/06/17 07:30:52;;;;;;;7.88;2.75;;;;;;;;;;6278268;22;20003;-72
2022/06/17 07:33:19;;;;;;;9.07;2.42;;;;;;;;;;6278037;22;19995;-71
2022/06/17 07:35:45;;;;;;;10.63;2.70;;;;;;;;;;6278148;22;20020;-71
2022/06/17 07:40:56;;;;;;;4.90;2.20;;;;;;;;;;6277837;22;20041;-72
2022/06/17 07:43:21;;;;;;;7.37;2.20;;;;;;;;;;6278140;22;20003;-72
2022/06/17 07:45:46;;;;;;;5.15;2.10;;;;;;;;;;6267327;22;20280;-72
2022/06/17 07:48:13;;;;;;;10.17;2.40;;;;;;;;;;6277491;22;20015;-72
2022/06/17 07:50:38;;;;;;;4.65;2.10;;;;;;;;;;6277640;22;20229;-72
2022/06/17 07:53:04;;;;;;;3.95;1.95;;;;;;;;;;6276092;22;20012;-72
2022/06/17 07:55:29;;;;;;;6.13;2.60;;;;;;;;;;6277332;22;19995;-72
2022/06/17 07:57:55;;;;;;;12.40;2.28;;;;;;;;;;6277205;22;20039;-72
2022/06/17 08:00:25;;;;;;;7.45;2.72;;;;;;;;;;6276631;22;19991;-72
2022/06/17 08:02:50;;;;;;;8.48;2.25;;;;;;;;;;6276498;22;20083;-72
2022/06/17 08:05:16;;;;;;;8.07;2.13;;;;;;;;;;6277468;22;20739;-72
2022/06/17 08:07:41;;;;;;;5.85;2.10;;;;;;;;;;6275126;22;20233;-72
2022/06/17 08:10:06;;;;;;;6.25;2.45;;;;;;;;;;6277275;22;20018;-72
2022/06/17 08:12:32;;;;;;;8.43;2.45;;;;;;;;;;6276435;22;20014;-72
2022/06/17 08:14:57;;;;;;;7.10;2.05;;;;;;;;;;6276778;22;19992;-72
2022/06/17 08:17:23;;;;;;;6.25;2.10;;;;;;;;;;6277691;22;19992;-72
2022/06/17 08:19:51;;;;;;;10.32;2.50;;;;;;;;;;6277319;22;20075;-72
2022/06/17 08:22:17;;;;;;;5.22;1.80;;;;;;;;;;6276339;22;20365;-72
2022/06/17 08:24:42;;;;;;;5.65;2.30;;;;;;;;;;6276082;22;19996;-72
2022/06/17 08:27:07;;;;;;;7.07;2.30;;;;;;;;;;6276993;22;20008;-72
2022/06/17 08:29:32;;;;;;;5.03;1.97;;;;;;;;;;6276677;22;20205;-73
2022/06/17 08:32:44;;;;;;;6.70;2.33;;;;;;;;;;6277246;22;20205;-72
2022/06/17 08:34:43;;;;;;;6.88;2.10;;;;;;;;;;6276512;22;20592;-73
2022/06/17 08:37:09;;;;;;;10.00;2.33;;;;;;;;;;6276409;22;19996;-73
2022/06/17 08:39:34;;;;;;;9.32;2.13;;;;;;;;;;6277752;22;20248;-73
2022/06/17 08:42:14;;;;;;;5.10;2.10;;;;;;;;;;6277563;22;20408;-72
2022/06/17 08:44:53;;;;;;;5.57;2.08;;;;;;;;;;6277255;22;19995;-73
2022/06/17 08:47:18;;;;;;;8.13;2.40;;;;;;;;;;6250438;22;20355;-72
2022/06/17 08:49:43;;;;;;;7.40;2.30;;;;;;;;;;6277437;22;20000;-72
2022/06/17 08:52:15;;;;;;;7.73;2.23;;;;;;;;;;6277666;22;20008;-73
2022/06/17 08:54:46;;;;;;;9.68;2.70;;;;;;;;;;6277356;22;20206;-73
2022/06/17 08:57:11;;;;;;;8.60;2.58;;;;;;;;;;6274721;22;20007;-73
2022/06/17 08:59:54;;;;;;;10.55;2.60;;;;;;;;;;6274963;22;20014;-73
2022/06/17 09:02:19;;;;;;;11.68;2.53;;;;;;;;;;6275770;22;20003;-73
2022/06/17 09:04:44;;;;;;;9.88;2.20;;;;;;;;;;6276460;22;20056;-73
2022/06/17 09:07:09;;;;;;;10.83;2.03;;;;;;;;;;6276623;22;20004;-73
2022/06/17 09:09:47;;;;;;;9.55;2.05;;;;;;;;;;6268334;22;20015;-73
2022/06/17 09:12:12;;;;;;;12.65;2.47;;;;;;;;;;6272236;22;20011;-73
2022/06/17 09:14:40;;;;;;;8.63;2.60;;;;;;;;;;6272012;22;20000;-73
2022/06/17 09:17:17;;;;;;;7.03;2.35;;;;;;;;;;6273799;22;20007;-73
2022/06/17 09:19:44;;;;;;;10.25;2.30;;;;;;;;;;6273030;22;20014;-73
2022/06/17 09:22:14;;;;;;;13.32;3.15;;;;;;;;;;6272379;22;20003;-73
2022/06/17 09:24:41;;;;;;;6.97;2.50;;;;;;;;;;6273734;22;19992;-73
2022/06/17 09:27:09;;;;;;;6.00;2.47;;;;;;;;;;6273480;22;20014;-73
2022/06/17 09:29:51;;;;;;;8.95;2.55;;;;;;;;;;6264336;22;20057;-73
2022/06/17 09:32:16;;;;;;;;;;;;;;;;;;6272264;22;20312;-73
2022/06/17 09:34:44;;;;;;;7.85;2.78;;;;;;;;;;6262101;22;19930;-73
2022/06/17 09:37:19;;;;;;;9.85;2.30;;;;;;;;;;6265647;22;20073;-73
2022/06/17 09:39:50;;;;;;;5.78;2.50;;;;;;;;;;6272144;22;20012;-73
2022/06/17 09:42:36;;;;;;;5.00;1.90;;;;;;;;;;6271778;22;20451;-73
2022/06/17 09:45:15;;;;;;;11.48;2.30;;;;;;;;;;6207840;22;20008;-74
2022/06/17 09:47:40;;;;;;;6.47;2.20;;;;;;;;;;6268876;22;20042;-74
2022/06/17 09:50:24;;;;;;;4.83;2.50;;;;;;;;;;6271133;22;20007;-73
2022/06/17 09:52:55;;;;;;;14.88;2.30;;;;;;;;;;6272193;22;20221;-74
2022/06/17 09:55:20;;;;;;;;;;;;;;;;;;6269512;22;20007;-74
2022/06/17 09:57:57;;;;;;;7.60;2.40;;;;;;;;;;6269307;22;19914;-74
2022/06/17 10:00:25;;;;;;;8.00;2.15;;;;;;;;;;6272584;22;20006;-73
2022/06/17 10:02:50;;;;;;;9.30;2.40;;;;;;;;;;6269746;22;20514;-73
2022/06/17 10:05:18;;;;;;;4.80;2.50;;;;;;;;;;6270885;22;20007;-74
2022/06/17 10:07:49;;;;;;;6.95;2.10;;;;;;;;;;6271620;22;20030;-74
2022/06/17 10:10:15;;;;;;;6.30;2.30;;;;;;;;;;6269832;22;19992;-73
2022/06/17 10:12:55;;;;;;;7.93;2.40;;;;;;;;;;6271565;22;20015;-73
2022/06/17 10:15:31;;;;;;;7.95;2.42;;;;;;;;;;6270874;22;20428;-73
2022/06/17 10:21:14;;;;;;;7.93;2.47;;;;;;;;;;6270927;22;20085;-73
2022/06/17 10:23:53;;;;;;;9.93;2.50;;;;;;;;;;6269887;22;19999;-73
2022/06/17 10:26:38;;;;;;;7.18;2.50;;;;;;;;;;6271001;22;20061;-73
2022/06/17 10:29:03;;;;;;;9.98;2.67;;;;;;;;;;6265845;22;19996;-73
2022/06/17 10:31:32;;;;;;;9.00;2.67;;;;;;;;;;6271575;22;20011;-73
2022/06/17 10:34:00;;;;;;;8.25;2.67;;;;;;;;;;6268937;22;20225;-73
2022/06/17 10:36:25;;;;;;;6.25;2.50;;;;;;;;;;6270417;22;19995;-73
2022/06/17 10:38:51;;;;;;;8.85;2.60;;;;;;;;;;6271493;22;20015;-73
2022/06/17 10:41:16;;;;;;;11.32;2.70;;;;;;;;;;6272059;22;20039;-73
2022/06/17 10:43:43;;;;;;;5.80;2.25;;;;;;;;;;6272469;22;20079;-73
2022/06/17 10:46:28;;;;;;;5.40;2.42;;;;;;;;;;6271436;22;20008;-72
2022/06/17 10:48:53;;;;;;;9.27;2.70;;;;;;;;;;6269971;22;20016;-72
2022/06/17 10:51:19;;;;;;;8.17;2.47;;;;;;;;;;6272261;22;20042;-72
2022/06/17 10:53:47;;;;;;;8.00;2.22;;;;;;;;;;6271840;22;20025;-72
2022/06/17 10:56:17;;;;;;;8.77;2.63;;;;;;;;;;6271767;22;19996;-72
2022/06/17 10:58:54;;;;;;;7.93;2.38;;;;;;;;;;6271738;22;20375;-72
2022/06/17 11:01:19;;;;;;;11.07;2.42;;;;;;;;;;6272770;22;20008;-71
2022/06/17 11:03:46;;;;;;;9.10;2.20;;;;;;;;;;6271561;22;20110;-72
2022/06/17 11:06:11;;;;;;;9.80;2.08;;;;;;;;;;6272103;22;20465;-71
2022/06/17 11:08:39;;;;;;;5.57;2.10;;;;;;;;;;6271775;22;20019;-71
2022/06/17 11:13:51;;;;;;;12.00;2.30;;;;;;;;;;6269798;22;20117;-71
2022/06/17 11:16:17;;;;;;;13.95;2.25;;;;;;;;;;6271736;22;19999;-72
2022/06/17 11:18:45;;;;;;;8.50;2.60;;;;;;;;;;6270878;22;20044;-71
2022/06/17 11:21:21;;;;;;;8.65;2.10;;;;;;;;;;6271398;22;20006;-72
2022/06/17 11:23:49;;;;;;;5.63;2.10;;;;;;;;;;6244603;22;20380;-71
2022/06/17 11:26:24;;;;;;;9.43;2.10;;;;;;;;;;6272109;22;20034;-71
2022/06/17 11:28:52;;;;;;;7.50;2.15;;;;;;;;;;6271495;22;20011;-71
2022/06/17 11:31:23;;;;;;;8.77;2.10;;;;;;;;;;6271916;22;19999;-71
2022/06/17 11:33:57;;;;;;;8.90;2.30;;;;;;;;;;6270145;22;20038;-71
2022/06/17 11:36:24;;;;;;;3.78;2.10;;;;;;;;;;6236612;22;20019;-71
2022/06/17 11:38:50;;;;;;;6.18;2.30;;;;;;;;;;6271769;22;20012;-71
2022/06/17 11:41:20;;;;;;;5.88;2.60;;;;;;;;;;6273185;22;20003;-71
2022/06/17 11:43:47;;;;;;;7.57;2.67;;;;;;;;;;6272549;22;20297;-71
2022/06/17 11:46:15;;;;;;;6.45;1.95;;;;;;;;;;6272868;22;20012;-71
2022/06/17 11:48:42;;;;;;;7.03;2.47;;;;;;;;;;6273328;22;20002;-71
2022/06/17 11:51:14;;;;;;;16.92;2.85;;;;;;;;;;6272925;22;19992;-71
2022/06/17 11:53:43;;;;;;;13.38;2.60;;;;;;;;;;6270029;22;20004;-72
2022/06/17 11:56:09;;;;;;;8.68;2.55;;;;;;;;;;6271611;22;20368;-71
2022/06/17 11:58:46;;;;;;;14.60;2.63;;;;;;;;;;6272687;22;20073;-72
2022/06/17 12:01:14;;;;;;;7.93;2.55;;;;;;;;;;6272930;22;20038;-71
2022/06/17 12:03:42;;;;;;;6.55;2.65;;;;;;;;;;6269429;22;20045;-71
2022/06/17 12:06:18;;;;;;;7.40;2.50;;;;;;;;;;6272402;22;19988;-71
2022/06/17 12:08:46;;;;;;;5.57;2.55;;;;;;;;;;6271814;22;20083;-71
2022/06/17 12:11:15;;;;;;;7.15;2.15;;;;;;;;;;6270501;22;20004;-71
2022/06/17 12:13:46;;;;;;;7.57;2.30;;;;;;;;;;6269992;22;19999;-71
2022/06/17 12:16:23;;;;;;;9.30;2.85;;;;;;;;;;6270303;22;20004;-70
2022/06/17 12:18:58;;;;;;;11.00;2.30;;;;;;;;;;6271896;22;20383;-70
2022/06/17 12:21:38;;;;;;;7.03;2.40;;;;;;;;;;6271951;22;20003;-71
2022/06/17 12:24:12;;;;;;;8.05;2.50;;;;;;;;;;6272437;22;19999;-71
2022/06/17 12:26:37;;;;;;;;;;;;;;;;;;6269565;22;20355;-71
2022/06/17 12:29:20;;;;;;;5.95;2.67;;;;;;;;;;6260579;22;19899;-71
2022/06/17 12:31:48;;;;;;;9.80;2.83;;;;;;;;;;6271282;22;20012;-71
2022/06/17 12:34:23;;;;;;;5.80;2.35;;;;;;;;;;6270928;22;20423;-71
2022/06/17 12:36:50;;;;;;;8.07;2.80;;;;;;;;;;6272475;22;20122;-71
2022/06/17 12:39:15;;;;;;;12.77;2.75;;;;;;;;;;6272065;22;20010;-71
2022/06/17 12:41:56;;;;;;;17.20;2.90;;;;;;;;;;6273102;22;20003;-71
2022/06/17 12:44:47;;;;;;;9.35;2.65;;;;;;;;;;6271650;22;20220;-71
2022/06/17 12:47:22;;;;;;;10.95;2.75;;;;;;;;;;6268265;22;20004;-71
2022/06/17 12:55:47;;;;;;;7.05;2.53;;;;;;;;;;6269040;22;20019;-73
2022/06/17 12:58:20;;;;;;;9.70;2.75;;;;;;;;;;6270991;22;20736;-71
2022/06/17 13:00:54;;;;;;;9.70;2.53;;;;;;;;;;6273087;22;20079;-71
2022/06/17 13:03:39;;;;;;;8.10;2.72;;;;;;;;;;6273112;22;20014;-71
2022/06/17 13:06:13;;;;;;;12.10;2.95;;;;;;;;;;6244989;22;20388;-71
2022/06/17 13:08:59;;;;;;;7.78;2.88;;;;;;;;;;6271796;22;20004;-71
2022/06/17 13:11:53;;;;;;;9.63;2.85;;;;;;;;;;6250765;22;20073;-72
2022/06/17 13:14:38;;;;;;;8.85;3.10;;;;;;;;;;6244726;22;20011;-71
2022/06/17 13:17:26;;;;;;;12.30;3.00;;;;;;;;;;6244860;22;20386;-73
2022/06/17 13:19:51;;;;;;;12.80;2.60;;;;;;;;;;6253775;22;20482;-71
2022/06/17 13:22:20;;;;;;;9.63;2.92;;;;;;;;;;6270387;22;19999;-70
2022/06/17 13:24:54;;;;;;;7.15;2.85;;;;;;;;;;6272151;22;20331;-71
2022/06/17 13:27:19;;;;;;;15.18;3.80;;;;;;;;;;6271854;22;20084;-73
2022/06/17 13:30:02;;;;;;;9.33;2.40;;;;;;;;;;6271432;22;20077;-71
2022/06/17 13:32:33;;;;;;;10.48;2.60;;;;;;;;;;6271566;22;20221;-71
2022/06/17 13:35:16;;;;;;;10.98;2.72;;;;;;;;;;6271598;22;20012;-71
2022/06/17 13:37:49;;;;;;;14.13;3.15;;;;;;;;;;6271572;22;20007;-71
2022/06/17 13:40:14;;;;;;;7.43;2.70;;;;;;;;;;6270991;22;20011;-71
2022/06/17 13:42:40;;;;;;;16.77;2.92;;;;;;;;;;6272489;22;20076;-71
2022/06/17 13:45:37;;;;;;;8.07;3.10;;;;;;;;;;6271618;22;19999;-71
2022/06/17 13:48:02;;;;;;;10.63;2.67;;;;;;;;;;6203629;22;20008;-71
2022/06/17 13:50:37;;;;;;;13.30;2.80;;;;;;;;;;6270592;22;20011;-71
2022/06/17 13:53:05;;;;;;;19.38;3.42;;;;;;;;;;6270409;22;20000;-70
2022/06/17 13:55:34;;;;;;;13.18;3.10;;;;;;;;;;6271720;22;20018;-71
2022/06/17 13:58:07;;;;;;;12.98;3.10;;;;;;;;;;6244347;22;20324;-71
2022/06/17 14:00:53;;;;;;;17.33;3.15;;;;;;;;;;6271518;22;20027;-71
2022/06/17 14:03:19;;;;;;;11.57;2.65;;;;;;;;;;6270945;22;20019;-71
2022/06/17 14:06:01;;;;;;;9.32;2.70;;;;;;;;;;6271551;22;20142;-71
2022/06/17 14:08:46;;;;;;;7.95;2.53;;;;;;;;;;6269564;22;20336;-71
2022/06/17 14:14:14;;;;;;;14.95;3.38;;;;;;;;;;6271667;22;20095;-71
2022/06/17 14:16:40;;;;;;;13.90;3.03;;;;;;;;;;6270775;22;20441;-71
2022/06/17 14:19:09;;;;;;;5.60;2.58;;;;;;;;;;6271627;22;20016;-71
2022/06/17 14:21:52;;;;;;;9.43;3.30;;;;;;;;;;6268904;22;20025;-71
2022/06/17 14:24:36;;;;;;;14.70;3.07;;;;;;;;;;6271043;22;20032;-70
2022/06/17 14:27:01;;;;;;;12.45;3.28;;;;;;;;;;6271036;22;20000;-71
2022/06/17 14:29:31;;;;;;;11.70;2.50;;;;;;;;;;6272138;22;20010;-71
2022/06/17 14:32:01;;;;;;;18.20;2.58;;;;;;;;;;6271857;22;20008;-71
2022/06/17 14:34:45;;;;;;;10.55;2.63;;;;;;;;;;6270000;22;20077;-72
2022/06/17 14:37:11;;;;;;;13.35;2.78;;;;;;;;;;6271999;22;20079;-70
2022/06/17 14:39:40;;;;;;;10.82;2.38;;;;;;;;;;6271645;22;20017;-71
2022/06/17 14:42:17;;;;;;;9.35;2.45;;;;;;;;;;6270513;22;20007;-71
2022/06/17 14:44:44;;;;;;;10.93;2.88;;;;;;;;;;6271324;22;20004;-73
2022/06/17 14:47:23;;;;;;;14.93;2.40;;;;;;;;;;6271558;22;20000;-73
2022/06/17 14:50:07;;;;;;;13.30;2.42;;;;;;;;;;6272005;22;20091;-73
2022/06/17 14:52:34;;;;;;;20.02;2.78;;;;;;;;;;6271938;22;20011;-71
2022/06/17 14:55:11;;;;;;;9.10;2.50;;;;;;;;;;6272253;22;20087;-71
2022/06/17 14:57:55;;;;;;;13.52;2.28;;;;;;;;;;6271315;22;20038;-73
2022/06/17 15:00:21;;;;;;;9.63;2.40;;;;;;;;;;6272197;22;20000;-71
2022/06/17 15:02:49;;;;;;;9.88;2.30;;;;;;;;;;6272650;22;20003;-71
2022/06/17 15:05:20;;;;;;;10.88;2.15;;;;;;;;;;6272784;22;19999;-71
2022/06/17 15:07:56;;;;;;;12.68;2.47;;;;;;;;;;6272496;22;20011;-71
2022/06/17 15:10:21;;;;;;;12.68;2.95;;;;;;;;;;6272083;22;20012;-71
2022/06/17 15:12:49;;;;;;;13.98;2.20;;;;;;;;;;6272769;22;20050;-71
2022/06/17 15:15:19;;;;;;;8.15;2.30;;;;;;;;;;6273956;22;20011;-71